createdAt,value
2018-10-19T00:00:35.281Z,41.60
2018-10-19T00:03:04.093Z,42.20
2018-10-19T00:05:32.983Z,44.27
2018-10-19T00:08:01.690Z,43.20
2018-10-19T00:10:30.507Z,43.17
2018-10-19T00:12:59.278Z,43.40
2018-10-19T00:15:28.098Z,40.40
2018-10-19T00:17:56.850Z,40.83
2018-10-19T00:20:25.658Z,41.73
2018-10-19T00:22:54.532Z,41.70
2018-10-19T00:25:23.342Z,43.10
2018-10-19T00:27:52.082Z,41.40
2018-10-19T00:30:20.834Z,42.67
2018-10-19T00:32:49.495Z,40.20
2018-10-19T00:35:18.293Z,38.83
2018-10-19T00:37:47.065Z,43.40
2018-10-19T00:40:15.925Z,38.80
2018-10-19T00:42:44.690Z,40.67
2018-10-19T00:45:13.769Z,40.40
2018-10-19T00:47:42.512Z,40.57
2018-10-19T00:50:11.374Z,40.93
2018-10-19T00:52:40.146Z,40.30
2018-10-19T00:55:09.081Z,39.20
2018-10-19T00:57:37.842Z,40.67
2018-10-19T01:00:06.604Z,41.37
2018-10-19T01:02:35.360Z,39.60
2018-10-19T01:05:04.290Z,38.93
2018-10-19T01:07:33.042Z,40.03
2018-10-19T01:10:01.962Z,41.57
2018-10-19T01:12:30.732Z,39.97
2018-10-19T01:15:00.220Z,40.17
2018-10-19T01:17:28.966Z,36.60
2018-10-19T01:19:57.843Z,39.37
2018-10-19T01:22:26.618Z,37.17
2018-10-19T01:24:55.560Z,40.17
2018-10-19T01:27:24.279Z,40.07
2018-10-19T01:29:53.082Z,37.67
2018-10-19T01:32:21.864Z,41.17
2018-10-19T01:34:50.654Z,37.57
2018-10-19T01:37:19.430Z,38.50
2018-10-19T01:39:48.234Z,38.90
2018-10-19T01:42:17.059Z,35.97
2018-10-19T01:44:45.867Z,37.27
2018-10-19T01:47:14.654Z,39.37
2018-10-19T01:49:43.458Z,37.40
2018-10-19T01:52:12.275Z,37.80
2018-10-19T01:54:41.231Z,39.50
2018-10-19T01:57:10.043Z,36.97
2018-10-19T01:59:38.916Z,38.20
2018-10-19T02:02:07.654Z,34.83
2018-10-19T02:04:36.558Z,37.37
2018-10-19T02:07:05.542Z,34.30
2018-10-19T02:09:34.327Z,34.93
2018-10-19T02:12:03.314Z,35.87
2018-10-19T02:14:32.170Z,36.33
2018-10-19T02:17:01.009Z,35.20
2018-10-19T02:19:29.835Z,33.90
2018-10-19T02:21:58.619Z,34.70
2018-10-19T02:24:27.379Z,34.93
2018-10-19T02:26:56.228Z,37.70
2018-10-19T02:29:25.002Z,35.70
2018-10-19T02:31:53.744Z,35.87
2018-10-19T02:34:22.584Z,34.53
2018-10-19T02:36:51.494Z,35.50
2018-10-19T02:39:20.419Z,35.87
2018-10-19T02:41:49.228Z,36.13
2018-10-19T02:44:17.983Z,34.20
2018-10-19T02:46:46.646Z,33.80
2018-10-19T02:49:15.483Z,35.10
2018-10-19T02:51:44.287Z,32.17
2018-10-19T02:54:13.046Z,37.00
2018-10-19T02:56:41.765Z,37.20
2018-10-19T02:59:10.574Z,34.63
2018-10-19T03:01:39.186Z,33.80
2018-10-19T03:04:07.982Z,33.93
2018-10-19T03:06:36.767Z,33.60
2018-10-19T03:09:08.694Z,32.30
2018-10-19T03:11:37.454Z,33.57
2018-10-19T03:14:06.653Z,34.33
2018-10-19T03:16:35.413Z,36.33
2018-10-19T03:19:04.222Z,34.53
2018-10-19T03:21:32.922Z,35.80
2018-10-19T03:24:01.749Z,34.53
2018-10-19T03:26:30.611Z,33.97
2018-10-19T03:28:59.510Z,31.33
2018-10-19T03:31:28.168Z,33.70
2018-10-19T03:33:56.845Z,31.60
2018-10-19T03:36:25.734Z,33.83
2018-10-19T03:38:54.889Z,31.27
2018-10-19T03:41:23.642Z,32.20
2018-10-19T03:43:52.415Z,33.03
2018-10-19T03:46:21.193Z,34.10
2018-10-19T03:48:49.899Z,30.63
2018-10-19T03:51:18.899Z,31.17
2018-10-19T03:53:47.590Z,32.03
2018-10-19T03:56:16.321Z,32.73
2018-10-19T03:58:45.047Z,31.87
2018-10-19T04:01:13.819Z,30.97
2018-10-19T04:03:42.733Z,31.80
2018-10-19T04:06:11.385Z,32.00
2018-10-19T04:08:40.187Z,29.67
2018-10-19T04:11:09.158Z,32.20
2018-10-19T04:13:37.911Z,29.50
2018-10-19T04:16:06.698Z,31.47
2018-10-19T04:18:35.558Z,31.70
2018-10-19T04:21:04.417Z,31.20
2018-10-19T04:23:33.298Z,29.77
2018-10-19T04:26:02.030Z,27.73
2018-10-19T04:28:30.835Z,31.60
2018-10-19T04:30:59.699Z,28.80
2018-10-19T04:33:28.558Z,32.27
2018-10-19T04:35:57.332Z,30.27
2018-10-19T04:38:26.142Z,28.47
2018-10-19T04:40:54.992Z,29.77
2018-10-19T04:43:23.882Z,30.00
2018-10-19T04:45:52.753Z,30.43
2018-10-19T04:48:21.609Z,27.10
2018-10-19T04:50:50.311Z,27.93
2018-10-19T04:53:19.372Z,28.30
2018-10-19T04:55:48.104Z,28.60
2018-10-19T04:58:17.019Z,28.60
2018-10-19T05:00:45.829Z,27.63
2018-10-19T05:03:14.697Z,28.83
2018-10-19T05:05:43.844Z,25.60
2018-10-19T05:08:12.668Z,27.60
2018-10-19T05:10:41.350Z,28.83
2018-10-19T05:13:10.338Z,29.00
2018-10-19T05:15:39.056Z,28.10
2018-10-19T05:18:07.890Z,28.37
2018-10-19T05:20:36.674Z,26.33
2018-10-19T05:23:06.094Z,28.07
2018-10-19T05:25:34.806Z,28.90
2018-10-19T05:28:03.647Z,31.47
2018-10-19T05:30:32.530Z,29.97
2018-10-19T05:33:01.379Z,29.17
2018-10-19T05:35:30.166Z,27.90
2018-10-19T05:37:59.041Z,28.03
2018-10-19T05:40:27.886Z,28.00
2018-10-19T05:42:56.694Z,28.57
2018-10-19T05:45:25.431Z,30.30
2018-10-19T05:47:54.253Z,27.40
2018-10-19T05:50:23.163Z,27.20
2018-10-19T05:52:51.999Z,28.43
2018-10-19T05:55:20.697Z,28.53
2018-10-19T05:57:49.483Z,28.53
2018-10-19T06:00:18.306Z,28.63
2018-10-19T06:02:47.058Z,27.47
2018-10-19T06:05:15.992Z,28.00
2018-10-19T06:07:44.759Z,26.90
2018-10-19T06:10:13.454Z,26.40
2018-10-19T06:12:42.999Z,28.90
2018-10-19T06:15:11.817Z,27.50
2018-10-19T06:17:40.682Z,26.77
2018-10-19T06:20:09.881Z,29.07
2018-10-19T06:22:38.582Z,29.37
2018-10-19T06:25:07.427Z,29.90
2018-10-19T06:27:36.409Z,29.20
2018-10-19T06:30:06.142Z,26.30
2018-10-19T06:32:34.855Z,26.07
2018-10-19T06:35:03.752Z,28.20
2018-10-19T06:37:32.532Z,28.40
2018-10-19T06:40:01.328Z,29.03
2018-10-19T06:42:30.148Z,26.87
2018-10-19T06:44:59.002Z,28.03
2018-10-19T06:47:27.840Z,27.67
2018-10-19T06:49:56.584Z,27.60
2018-10-19T06:52:25.353Z,26.80
2018-10-19T06:54:54.162Z,26.50
2018-10-19T06:57:23.034Z,27.17
2018-10-19T06:59:51.694Z,28.27
2018-10-19T07:02:20.514Z,24.70
2018-10-19T07:04:49.330Z,27.10
2018-10-19T07:07:18.254Z,25.73
2018-10-19T07:09:47.023Z,27.17
2018-10-19T07:12:15.841Z,27.50
2018-10-19T07:14:44.523Z,26.30
2018-10-19T07:17:13.364Z,26.50
2018-10-19T07:19:42.225Z,25.73
2018-10-19T07:22:11.106Z,25.17
2018-10-19T07:24:39.845Z,25.17
2018-10-19T07:27:08.585Z,24.90
2018-10-19T07:29:37.498Z,25.63
2018-10-19T07:32:06.291Z,23.97
2018-10-19T07:34:34.935Z,24.30
2018-10-19T07:37:03.760Z,23.50
2018-10-19T07:39:32.435Z,23.77
2018-10-19T07:42:01.224Z,22.87
2018-10-19T07:44:30.525Z,23.70
2018-10-19T07:46:59.512Z,23.40
2018-10-19T07:49:28.480Z,23.10
2018-10-19T07:51:57.498Z,22.53
2018-10-19T07:54:26.390Z,21.87
2018-10-19T07:56:55.214Z,24.27
2018-10-19T07:59:23.975Z,23.37
2018-10-19T08:01:52.821Z,23.03
2018-10-19T08:04:21.659Z,22.80
2018-10-19T08:06:50.420Z,21.67
2018-10-19T08:09:19.186Z,21.23
2018-10-19T08:11:48.003Z,26.30
2018-10-19T08:14:17.042Z,25.23
2018-10-19T08:16:46.018Z,24.13
2018-10-19T08:19:14.922Z,21.60
2018-10-19T08:21:43.982Z,23.40
2018-10-19T08:24:12.742Z,20.30
2018-10-19T08:26:41.786Z,23.00
2018-10-19T08:29:10.702Z,23.63
2018-10-19T08:31:39.539Z,21.87
2018-10-19T08:34:08.333Z,24.00
2018-10-19T08:36:37.287Z,21.23
2018-10-19T08:39:08.391Z,25.00
2018-10-19T08:41:37.223Z,24.23
2018-10-19T08:44:05.983Z,21.73
2018-10-19T08:46:39.880Z,23.87
2018-10-19T08:49:10.561Z,24.57
2018-10-19T08:51:40.203Z,25.53
2018-10-19T08:54:09.386Z,24.60
2018-10-19T08:56:38.498Z,24.30
2018-10-19T08:59:07.339Z,24.63
2018-10-19T09:01:36.218Z,24.97
2018-10-19T09:04:05.447Z,26.43
2018-10-19T09:06:34.318Z,26.57
2018-10-19T09:09:03.388Z,27.53
2018-10-19T09:11:32.278Z,27.70
2018-10-19T09:14:01.133Z,26.57
2018-10-19T09:16:29.988Z,27.13
2018-10-19T09:18:58.681Z,27.80
2018-10-19T09:21:27.615Z,26.20
2018-10-19T09:23:56.546Z,29.20
2018-10-19T09:26:25.386Z,27.60
2018-10-19T09:28:54.268Z,27.20
2018-10-19T09:31:23.379Z,26.73
2018-10-19T09:33:52.154Z,26.27
2018-10-19T09:36:21.057Z,27.47
2018-10-19T09:38:49.786Z,27.63
2018-10-19T09:41:18.606Z,26.67
2018-10-19T09:43:47.399Z,28.07
2018-10-19T09:46:16.145Z,25.50
2018-10-19T09:48:45.027Z,27.20
2018-10-19T09:51:13.889Z,28.23
2018-10-19T09:53:42.666Z,25.77
2018-10-19T09:56:11.864Z,25.60
2018-10-19T09:58:40.570Z,26.10
2018-10-19T10:01:14.695Z,27.70
2018-10-19T10:03:43.555Z,28.50
2018-10-19T10:06:12.424Z,27.90
2018-10-19T10:08:41.293Z,31.63
2018-10-19T10:11:10.243Z,28.43
2018-10-19T10:13:39.183Z,28.03
2018-10-19T10:16:08.106Z,27.00
2018-10-19T10:18:37.334Z,27.90
2018-10-19T10:21:06.855Z,27.80
2018-10-19T10:23:35.779Z,28.33
2018-10-19T10:26:04.657Z,29.83
2018-10-19T10:28:33.389Z,31.03
2018-10-19T10:31:02.569Z,28.00
2018-10-19T10:33:31.438Z,27.93
2018-10-19T10:36:00.451Z,27.03
2018-10-19T10:38:29.641Z,28.37
2018-10-19T10:40:58.514Z,30.33
2018-10-19T10:43:27.358Z,30.50
2018-10-19T10:45:56.434Z,30.30
2018-10-19T10:48:25.518Z,28.47
2018-10-19T10:50:55.314Z,28.10
2018-10-19T10:53:24.235Z,28.50
2018-10-19T10:55:53.335Z,28.90
2018-10-19T10:58:22.070Z,28.97
2018-10-19T11:00:50.914Z,28.50
2018-10-19T11:03:19.636Z,28.10
2018-10-19T11:05:49.078Z,27.27
2018-10-19T11:08:17.926Z,29.30
2018-10-19T11:10:47.050Z,27.63
2018-10-19T11:13:15.916Z,26.80
2018-10-19T11:15:44.746Z,28.70
2018-10-19T11:18:13.614Z,28.50
2018-10-19T11:20:42.490Z,29.70
2018-10-19T11:23:11.199Z,28.07
2018-10-19T11:25:40.059Z,27.87
2018-10-19T11:28:08.858Z,27.80
2018-10-19T11:30:37.782Z,27.73
2018-10-19T11:33:06.760Z,29.47
2018-10-19T11:35:35.767Z,30.17
2018-10-19T11:38:04.903Z,27.03
2018-10-19T11:40:36.846Z,28.07
2018-10-19T11:43:06.203Z,28.43
2018-10-19T11:45:36.183Z,30.87
2018-10-19T11:48:05.059Z,28.90
2018-10-19T11:50:34.014Z,28.07
2018-10-19T11:53:02.900Z,26.87
2018-10-19T11:55:30.753Z,23.70
2018-10-19T11:57:59.970Z,28.73
2018-10-19T12:00:28.775Z,25.70
2018-10-19T12:02:57.660Z,24.73
2018-10-19T12:05:26.443Z,24.30
2018-10-19T12:07:55.277Z,26.30
2018-10-19T12:10:24.139Z,25.87
2018-10-19T12:12:53.112Z,25.20
2018-10-19T12:15:21.818Z,24.00
2018-10-19T12:17:50.705Z,23.63
2018-10-19T12:20:20.014Z,25.60
2018-10-19T12:22:48.692Z,26.30
2018-10-19T12:25:18.091Z,24.07
2018-10-19T12:27:46.838Z,25.33
2018-10-19T12:30:15.780Z,25.23
2018-10-19T12:32:44.573Z,24.43
2018-10-19T12:35:14.501Z,24.63
2018-10-19T12:37:43.196Z,21.10
2018-10-19T12:40:12.499Z,20.00
2018-10-19T12:42:41.346Z,24.37
2018-10-19T12:45:21.159Z,21.07
2018-10-19T12:47:49.862Z,23.87
2018-10-19T12:50:18.714Z,20.30
2018-10-19T12:52:47.467Z,23.13
2018-10-19T12:55:16.326Z,21.80
2018-10-19T12:57:45.031Z,23.20
2018-10-19T13:00:14.088Z,19.97
2018-10-19T13:02:42.914Z,23.20
2018-10-19T13:05:11.643Z,19.70
2018-10-19T13:07:40.752Z,20.10
2018-10-19T13:10:09.778Z,21.67
2018-10-19T13:12:38.462Z,20.90
2018-10-19T13:15:07.476Z,19.30
2018-10-19T13:17:36.155Z,19.47
2018-10-19T13:20:04.968Z,20.00
2018-10-19T13:22:33.854Z,19.90
2018-10-19T13:25:02.730Z,18.50
2018-10-19T13:27:31.718Z,21.43
2018-10-19T13:30:00.560Z,20.43
2018-10-19T13:32:29.290Z,18.80
2018-10-19T13:34:58.228Z,17.40
2018-10-19T13:37:27.075Z,17.33
2018-10-19T13:39:55.799Z,18.70
2018-10-19T13:42:24.635Z,19.53
2018-10-19T13:44:53.370Z,17.63
2018-10-19T13:47:22.250Z,21.13
2018-10-19T13:49:57.815Z,19.77
2018-10-19T13:52:26.651Z,20.03
2018-10-19T13:54:55.497Z,20.30
2018-10-19T13:57:24.342Z,19.70
2018-10-19T13:59:53.178Z,19.77
2018-10-19T14:02:22.055Z,19.83
2018-10-19T14:04:51.027Z,22.27
2018-10-19T14:07:19.734Z,18.90
2018-10-19T14:09:48.456Z,18.07
2018-10-19T14:12:17.311Z,20.50
2018-10-19T14:14:46.116Z,20.40
2018-10-19T14:17:15.133Z,22.33
2018-10-19T14:19:43.979Z,22.27
2018-10-19T14:22:12.823Z,21.87
2018-10-19T14:24:41.696Z,22.23
2018-10-19T14:27:10.529Z,23.40
2018-10-19T14:29:39.311Z,23.53
2018-10-19T14:32:08.014Z,20.17
2018-10-19T14:34:36.728Z,22.33
2018-10-19T14:37:05.603Z,24.83
2018-10-19T14:39:34.290Z,23.77
2018-10-19T14:42:04.797Z,22.57
2018-10-19T14:44:33.646Z,23.47
2018-10-19T14:47:02.348Z,24.23
2018-10-19T14:49:31.226Z,24.67
2018-10-19T14:52:00.003Z,28.20
2018-10-19T14:54:28.813Z,26.67
2018-10-19T14:56:57.720Z,26.37
2018-10-19T14:59:26.474Z,26.83
2018-10-19T15:01:55.244Z,24.60
2018-10-19T15:04:24.465Z,25.87
2018-10-19T15:06:53.140Z,24.80
2018-10-19T15:09:22.012Z,27.80
2018-10-19T15:11:50.732Z,24.17
2018-10-19T15:14:19.515Z,26.90
2018-10-19T15:16:48.254Z,24.77
2018-10-19T15:19:17.088Z,27.53
2018-10-19T15:21:45.867Z,27.70
2018-10-19T15:24:15.040Z,24.87
2018-10-19T15:26:43.791Z,28.77
2018-10-19T15:29:12.773Z,75.40
2018-10-19T15:31:41.431Z,163.93
2018-10-19T15:34:10.247Z,230.53
2018-10-19T15:36:39.170Z,133.43
2018-10-19T15:39:10.540Z,120.17
2018-10-19T15:41:39.388Z,128.47
2018-10-19T15:44:08.347Z,69.27
2018-10-19T15:46:37.159Z,48.00
2018-10-19T15:49:06.150Z,34.80
2018-10-19T15:51:34.962Z,37.57
2018-10-19T15:54:04.047Z,31.10
2018-10-19T15:56:33.244Z,32.73
2018-10-19T15:59:02.126Z,29.07
2018-10-19T16:01:30.789Z,29.90
2018-10-19T16:03:59.706Z,28.60
2018-10-19T16:06:28.592Z,31.07
2018-10-19T16:08:57.321Z,29.03
2018-10-19T16:11:26.120Z,30.63
2018-10-19T16:13:54.871Z,28.53
2018-10-19T16:16:23.719Z,28.70
2018-10-19T16:18:52.787Z,27.70
2018-10-19T16:21:21.666Z,26.10
2018-10-19T16:23:50.475Z,28.80
2018-10-19T16:26:19.241Z,29.50
2018-10-19T16:28:48.106Z,30.07
2018-10-19T16:31:16.982Z,28.57
2018-10-19T16:33:45.702Z,29.90
2018-10-19T16:36:14.499Z,30.20
2018-10-19T16:38:43.146Z,29.00
2018-10-19T16:41:12.186Z,28.90
2018-10-19T16:43:40.919Z,30.10
2018-10-19T16:46:09.849Z,28.10
2018-10-19T16:48:38.797Z,28.60
2018-10-19T16:51:07.516Z,27.70
2018-10-19T16:53:36.317Z,30.50
2018-10-19T16:56:05.426Z,28.73
2018-10-19T16:58:33.321Z,31.00
2018-10-19T17:01:02.599Z,29.40
2018-10-19T17:03:31.375Z,30.00
2018-10-19T17:06:00.364Z,31.30
2018-10-19T17:08:29.143Z,32.13
2018-10-19T17:10:57.918Z,30.77
2018-10-19T17:13:26.743Z,30.33
2018-10-19T17:15:55.508Z,30.20
2018-10-19T17:18:24.364Z,31.10
2018-10-19T17:20:53.252Z,32.97
2018-10-19T17:23:22.100Z,35.17
2018-10-19T17:25:50.905Z,33.17
2018-10-19T17:28:19.877Z,31.80
2018-10-19T17:30:48.654Z,33.40
2018-10-19T17:33:17.726Z,32.83
2018-10-19T17:35:46.398Z,34.10
2018-10-19T17:38:15.139Z,33.20
2018-10-19T17:40:43.886Z,33.80
2018-10-19T17:43:12.678Z,34.60
2018-10-19T17:45:41.363Z,34.70
2018-10-19T17:48:10.245Z,33.23
2018-10-19T17:50:38.906Z,34.43
2018-10-19T17:53:07.686Z,32.70
2018-10-19T17:55:36.418Z,32.57
2018-10-19T17:58:05.277Z,31.60
2018-10-19T18:00:34.274Z,34.97
2018-10-19T18:03:03.251Z,32.90
2018-10-19T18:05:32.040Z,34.57
2018-10-19T18:08:00.790Z,32.87
2018-10-19T18:10:29.886Z,33.70
2018-10-19T18:12:58.947Z,34.40
2018-10-19T18:15:28.000Z,33.87
2018-10-19T18:17:56.766Z,34.93
2018-10-19T18:20:25.602Z,32.97
2018-10-19T18:22:54.632Z,34.60
2018-10-19T18:25:23.606Z,32.43
2018-10-19T18:27:52.337Z,37.40
2018-10-19T18:30:21.248Z,33.13
2018-10-19T18:32:50.070Z,33.20
2018-10-19T18:35:18.906Z,33.93
2018-10-19T18:37:47.655Z,33.17
2018-10-19T18:40:16.522Z,34.60
2018-10-19T18:42:45.498Z,33.73
2018-10-19T18:45:14.607Z,34.33
2018-10-19T18:47:43.379Z,33.70
2018-10-19T18:50:12.142Z,36.23
2018-10-19T18:52:41.115Z,35.10
2018-10-19T18:55:09.939Z,38.77
2018-10-19T18:57:38.941Z,36.07
2018-10-19T19:00:09.976Z,37.57
2018-10-19T19:02:38.801Z,38.03
2018-10-19T19:05:07.825Z,38.37
2018-10-19T19:07:36.650Z,39.20
2018-10-19T19:10:13.014Z,39.50
2018-10-19T19:12:41.816Z,38.50
2018-10-19T19:15:11.388Z,39.70
2018-10-19T19:17:40.632Z,38.40
2018-10-19T19:20:14.885Z,36.73
2018-10-19T19:22:44.047Z,38.93
2018-10-19T19:25:18.098Z,38.43
2018-10-19T19:27:47.036Z,41.83
2018-10-19T19:30:15.715Z,36.97
2018-10-19T19:32:49.806Z,39.83
2018-10-19T19:35:18.823Z,39.80
2018-10-19T19:37:47.569Z,37.80
2018-10-19T19:40:16.435Z,36.73
2018-10-19T19:42:50.974Z,39.47
2018-10-19T19:45:20.012Z,37.13
2018-10-19T19:47:53.914Z,37.40
2018-10-19T19:50:22.758Z,36.43
2018-10-19T19:52:51.549Z,35.50
2018-10-19T19:55:20.291Z,38.90
2018-10-19T19:57:49.254Z,41.20
2018-10-19T20:00:18.067Z,41.20
2018-10-19T20:02:46.862Z,40.43
2018-10-19T20:05:15.849Z,37.73
2018-10-19T20:07:44.810Z,37.27
2018-10-19T20:10:13.706Z,37.30
2018-10-19T20:12:42.454Z,36.27
2018-10-19T20:15:11.556Z,34.63
2018-10-19T20:17:40.530Z,34.77
2018-10-19T20:20:10.873Z,36.67
2018-10-19T20:22:40.381Z,39.30
2018-10-19T20:25:10.355Z,36.27
2018-10-19T20:27:39.823Z,37.40
2018-10-19T20:30:12.404Z,37.97
2018-10-19T20:32:41.367Z,38.53
2018-10-19T20:35:10.365Z,39.80
2018-10-19T20:37:39.308Z,37.67
2018-10-19T20:40:08.256Z,37.60
2018-10-19T20:42:37.139Z,37.30
2018-10-19T20:45:06.372Z,38.97
2018-10-19T20:47:35.213Z,36.97
2018-10-19T20:50:04.276Z,40.33
2018-10-19T20:52:33.170Z,37.63
2018-10-19T20:55:01.982Z,38.50
2018-10-19T20:57:30.900Z,39.90
2018-10-19T20:59:59.871Z,37.67
2018-10-19T21:02:28.837Z,38.10
2018-10-19T21:04:57.714Z,37.83
2018-10-19T21:07:26.453Z,37.83
2018-10-19T21:09:55.395Z,36.67
2018-10-19T21:12:24.155Z,40.00
2018-10-19T21:14:52.919Z,42.20
2018-10-19T21:17:21.734Z,45.20
2018-10-19T21:19:50.509Z,49.30
2018-10-19T21:22:19.361Z,45.83
2018-10-19T21:24:48.429Z,48.10
2018-10-19T21:27:17.278Z,52.80
2018-10-19T21:29:46.386Z,55.70
2018-10-19T21:32:15.250Z,47.50
2018-10-19T21:34:43.995Z,41.73
2018-10-19T21:37:12.766Z,44.77
2018-10-19T21:39:41.522Z,53.07
2018-10-19T21:42:10.434Z,48.40
2018-10-19T21:44:40.357Z,45.03
2018-10-19T21:47:09.454Z,47.43
2018-10-19T21:49:38.171Z,53.07
2018-10-19T21:52:07.025Z,72.27
2018-10-19T21:54:35.802Z,50.27
2018-10-19T21:57:04.674Z,80.63
2018-10-19T21:59:33.590Z,54.20
2018-10-19T22:02:02.441Z,48.00
2018-10-19T22:04:31.344Z,60.57
2018-10-19T22:07:00.222Z,60.23
2018-10-19T22:09:29.049Z,79.80
2018-10-19T22:11:57.755Z,57.37
2018-10-19T22:14:26.518Z,57.03
2018-10-19T22:16:55.387Z,66.67
2018-10-19T22:19:24.145Z,100.10
2018-10-19T22:21:52.960Z,46.27
2018-10-19T22:24:21.879Z,47.67
2018-10-19T22:26:50.613Z,44.23
2018-10-19T22:29:19.475Z,39.67
2018-10-19T22:31:48.374Z,39.67
2018-10-19T22:34:17.234Z,45.73
2018-10-19T22:36:46.954Z,45.63
2018-10-19T22:39:15.745Z,46.10
2018-10-19T22:41:44.663Z,53.77
2018-10-19T22:44:13.535Z,56.53
2018-10-19T22:46:42.447Z,46.50
2018-10-19T22:49:11.242Z,49.17
2018-10-19T22:51:40.014Z,44.57
2018-10-19T22:54:08.803Z,38.77
2018-10-19T22:56:37.680Z,41.73
2018-10-19T22:59:06.964Z,41.13
2018-10-19T23:04:25.882Z,53.80
2018-10-19T23:06:54.644Z,78.83
2018-10-19T23:09:23.624Z,55.80
2018-10-19T23:11:52.398Z,66.60
2018-10-19T23:14:21.211Z,100.97
2018-10-19T23:16:49.906Z,113.20
2018-10-19T23:19:18.591Z,150.10
2018-10-19T23:21:47.295Z,70.17
2018-10-19T23:24:16.003Z,78.23
2018-10-19T23:26:44.737Z,101.03
2018-10-19T23:29:13.597Z,89.70
2018-10-19T23:31:42.370Z,50.87
2018-10-19T23:34:10.910Z,38.50
2018-10-19T23:36:39.598Z,47.30
2018-10-19T23:39:09.914Z,39.00
2018-10-19T23:41:39.037Z,40.50
2018-10-19T23:44:07.822Z,36.07
2018-10-19T23:46:36.714Z,34.83
2018-10-19T23:49:05.855Z,60.83
2018-10-19T23:51:34.546Z,54.43
2018-10-19T23:54:03.477Z,38.50
2018-10-19T23:56:32.273Z,34.10
2018-10-19T23:59:01.088Z,93.50
